Time;durP1;ratioP1;P1;durP2;ratioP2;P2;SDS_P1;SDS_P2;PMS_P1;PMS_P2;Temp;Humidity;BMP_temperature;BMP_pressure;BME280_temperature;BME280_humidity;BME280_pressure;Samples;Min_cycle;Max_cycle;Signal;HPM_P1;HPM_P2
2022/01/19 00:00:52;;;;;;;44.17;23.98;;;;;;;;;;5144697;27;20118;-60
2022/01/19 00:03:18;;;;;;;52.67;27.10;;;;;;;;;;5145370;27;20058;-60
2022/01/19 00:05:45;;;;;;;53.30;25.65;;;;;;;;;;5145267;27;20127;-59
2022/01/19 00:08:16;;;;;;;48.35;26.00;;;;;;;;;;5145803;27;20078;-60
2022/01/19 00:10:43;;;;;;;44.78;22.45;;;;;;;;;;5145814;27;20044;-62
2022/01/19 00:13:09;;;;;;;43.53;21.40;;;;;;;;;;5145725;27;20050;-60
2022/01/19 00:15:35;;;;;;;42.08;20.75;;;;;;;;;;5144484;27;20043;-60
2022/01/19 00:18:01;;;;;;;44.38;21.77;;;;;;;;;;5145425;27;20047;-60
2022/01/19 00:20:30;;;;;;;41.80;21.67;;;;;;;;;;5144892;27;20039;-60
2022/01/19 00:22:57;;;;;;;54.28;24.08;;;;;;;;;;5145462;27;20043;-60
2022/01/19 00:25:23;;;;;;;43.13;21.88;;;;;;;;;;5145978;28;20047;-59
2022/01/19 00:27:49;;;;;;;52.67;25.08;;;;;;;;;;5145276;28;20044;-60
2022/01/19 00:30:15;;;;;;;44.97;21.88;;;;;;;;;;5145378;28;20071;-60
2022/01/19 00:32:41;;;;;;;45.78;21.13;;;;;;;;;;5145336;28;20552;-60
2022/01/19 00:35:09;;;;;;;41.13;21.77;;;;;;;;;;5145057;28;20055;-60
2022/01/19 00:37:35;;;;;;;47.70;23.77;;;;;;;;;;5145441;27;20043;-60
2022/01/19 00:40:01;;;;;;;45.33;22.23;;;;;;;;;;5147046;27;20439;-59
2022/01/19 00:45:38;;;;;;;33.15;17.58;;;;;;;;;;5149590;27;20050;-60
2022/01/19 00:48:04;;;;;;;42.37;21.07;;;;;;;;;;5148106;27;20093;-60
2022/01/19 00:50:31;;;;;;;42.50;18.27;;;;;;;;;;5148858;27;20281;-58
2022/01/19 00:52:57;;;;;;;38.13;18.17;;;;;;;;;;5149523;27;20046;-60
2022/01/19 00:55:24;;;;;;;42.42;19.65;;;;;;;;;;5149380;27;20086;-58
2022/01/19 00:57:51;;;;;;;50.33;23.27;;;;;;;;;;5149601;27;20105;-59
2022/01/19 01:00:19;;;;;;;46.47;22.02;;;;;;;;;;5149329;27;20072;-58
2022/01/19 01:02:45;;;;;;;41.50;21.13;;;;;;;;;;5148866;27;20443;-61
2022/01/19 01:05:11;;;;;;;45.53;19.60;;;;;;;;;;5148479;27;20039;-58
2022/01/19 01:07:38;;;;;;;53.90;22.35;;;;;;;;;;5149288;27;20126;-58
2022/01/19 01:10:06;;;;;;;44.80;23.37;;;;;;;;;;5149265;27;20047;-61
2022/01/19 01:15:36;;;;;;;53.50;24.50;;;;;;;;;;5144227;27;20051;-58
2022/01/19 01:20:30;;;;;;;58.28;23.98;;;;;;;;;;5148139;27;20529;-60
2022/01/19 01:22:56;;;;;;;56.22;26.88;;;;;;;;;;5148953;27;20046;-60
2022/01/19 01:25:23;;;;;;;57.38;27.10;;;;;;;;;;5148929;27;20486;-60
2022/01/19 01:27:49;;;;;;;59.42;27.08;;;;;;;;;;5148553;27;20047;-60
2022/01/19 01:30:15;;;;;;;70.97;28.40;;;;;;;;;;5149151;27;20045;-60
2022/01/19 01:32:41;;;;;;;66.13;27.75;;;;;;;;;;5148419;27;20101;-60
2022/01/19 01:35:09;;;;;;;68.57;28.35;;;;;;;;;;5148206;27;20106;-60
2022/01/19 01:37:36;;;;;;;57.88;27.75;;;;;;;;;;5148503;27;20043;-60
2022/01/19 01:40:03;;;;;;;65.07;28.67;;;;;;;;;;5148606;27;20050;-60
2022/01/19 01:42:29;;;;;;;67.43;29.45;;;;;;;;;;5148142;27;20080;-60
2022/01/19 01:44:59;;;;;;;64.18;28.95;;;;;;;;;;5148948;27;20043;-60
2022/01/19 01:47:27;;;;;;;74.82;29.75;;;;;;;;;;5147644;27;20070;-61
2022/01/19 01:55:12;;;;;;;73.07;30.58;;;;;;;;;;5147201;28;20528;-60
2022/01/19 01:57:38;;;;;;;76.78;30.88;;;;;;;;;;5146890;28;20103;-58
2022/01/19 02:00:06;;;;;;;64.10;29.50;;;;;;;;;;5146858;28;20098;-58
2022/01/19 02:02:32;;;;;;;74.20;28.88;;;;;;;;;;5147058;28;20061;-58
2022/01/19 02:04:58;;;;;;;72.80;27.58;;;;;;;;;;5146984;28;20039;-58
2022/01/19 02:07:32;;;;;;;70.88;28.60;;;;;;;;;;5146334;28;20502;-61
2022/01/19 02:10:02;;;;;;;70.28;28.42;;;;;;;;;;5146962;27;20035;-58
2022/01/19 02:23:45;;;;;;;77.88;27.83;;;;;;;;;;5126207;28;20080;-58
2022/01/19 02:26:18;;;;;;;70.07;30.45;;;;;;;;;;5133996;28;20095;-58
2022/01/19 02:29:07;;;;;;;82.32;29.40;;;;;;;;;;5146298;28;20057;-60
2022/01/19 02:42:41;;;;;;;80.60;34.03;;;;;;;;;;5102737;28;20093;-60
2022/01/19 02:50:18;;;;;;;87.80;31.70;;;;;;;;;;5103482;28;20072;-59
2022/01/19 02:52:45;;;;;;;83.78;31.25;;;;;;;;;;5103593;28;20066;-59
2022/01/19 02:55:11;;;;;;;71.97;29.70;;;;;;;;;;5107097;28;20522;-58
2022/01/19 02:57:38;;;;;;;81.03;31.88;;;;;;;;;;5122778;28;20043;-59
2022/01/19 03:08:45;;;;;;;81.20;33.05;;;;;;;;;;5124916;28;20060;-58
2022/01/19 03:11:12;;;;;;;96.00;35.65;;;;;;;;;;5140560;27;20046;-59
2022/01/19 03:13:38;;;;;;;99.13;34.70;;;;;;;;;;5146840;27;20043;-61
2022/01/19 03:16:05;;;;;;;99.05;35.47;;;;;;;;;;5146660;27;20043;-58
2022/01/19 03:18:31;;;;;;;103.32;33.60;;;;;;;;;;5146573;27;20507;-58
2022/01/19 03:20:57;;;;;;;95.68;34.47;;;;;;;;;;5145764;27;20047;-58
2022/01/19 03:23:23;;;;;;;71.05;28.15;;;;;;;;;;5146469;27;20130;-60
2022/01/19 03:25:50;;;;;;;87.38;33.55;;;;;;;;;;5146673;27;20049;-58
2022/01/19 03:28:16;;;;;;;91.75;33.15;;;;;;;;;;5146308;27;20045;-60
2022/01/19 03:30:43;;;;;;;115.30;35.10;;;;;;;;;;5146287;27;20114;-58
2022/01/19 03:33:09;;;;;;;97.60;32.90;;;;;;;;;;5146157;27;20102;-61
2022/01/19 03:35:35;;;;;;;92.68;32.17;;;;;;;;;;5145870;27;20054;-58
2022/01/19 03:38:01;;;;;;;63.50;28.33;;;;;;;;;;5146525;27;20076;-61
2022/01/19 03:40:27;;;;;;;88.68;28.10;;;;;;;;;;5146224;27;20450;-58
2022/01/19 03:42:54;;;;;;;71.85;29.05;;;;;;;;;;5146029;27;20222;-60
2022/01/19 03:45:20;;;;;;;92.55;31.95;;;;;;;;;;5146092;27;20410;-58
2022/01/19 03:47:54;;;;;;;85.72;28.75;;;;;;;;;;5145806;27;20107;-61
2022/01/19 03:50:20;;;;;;;96.22;32.58;;;;;;;;;;5145207;27;20039;-61
2022/01/19 03:52:46;;;;;;;102.40;31.95;;;;;;;;;;5146064;27;20038;-59
2022/01/19 03:55:12;;;;;;;92.13;30.10;;;;;;;;;;5146477;27;20043;-61
2022/01/19 03:57:39;;;;;;;95.30;32.90;;;;;;;;;;5145606;27;20541;-59
2022/01/19 04:00:06;;;;;;;90.75;31.20;;;;;;;;;;5145340;27;20098;-59
2022/01/19 04:02:35;;;;;;;98.75;33.53;;;;;;;;;;5145609;27;20437;-61
2022/01/19 04:05:10;;;;;;;81.45;29.23;;;;;;;;;;5145762;27;20172;-59
2022/01/19 04:07:36;;;;;;;89.30;29.58;;;;;;;;;;5145798;27;20039;-59
2022/01/19 04:10:03;;;;;;;81.70;30.88;;;;;;;;;;5145720;27;20120;-58
2022/01/19 04:12:56;;;;;;;83.88;26.80;;;;;;;;;;5145643;27;20045;-58
2022/01/19 04:15:23;;;;;;;91.22;31.20;;;;;;;;;;5145599;27;20054;-58
2022/01/19 04:17:54;;;;;;;92.47;32.35;;;;;;;;;;5145820;27;20054;-59
2022/01/19 04:20:23;;;;;;;91.80;30.70;;;;;;;;;;5144689;27;20843;-59
2022/01/19 04:22:50;;;;;;;90.97;30.95;;;;;;;;;;5145754;27;20047;-58
2022/01/19 04:25:16;;;;;;;102.25;31.75;;;;;;;;;;5145510;27;20118;-61
2022/01/19 04:27:43;;;;;;;97.72;31.92;;;;;;;;;;5145559;28;20103;-58
2022/01/19 04:30:12;;;;;;;96.70;30.33;;;;;;;;;;5145259;27;20051;-60
2022/01/19 04:32:50;;;;;;;88.47;30.85;;;;;;;;;;5145518;27;20402;-60
2022/01/19 04:35:20;;;;;;;79.47;27.95;;;;;;;;;;5143860;28;20069;-60
2022/01/19 05:07:34;;;;;;;85.03;30.98;;;;;;;;;;5080796;28;20036;-58
2022/01/19 05:15:14;;;;;;;95.93;30.58;;;;;;;;;;5081557;28;20092;-59
2022/01/19 05:17:40;;;;;;;75.00;29.92;;;;;;;;;;5081353;28;20100;-58
2022/01/19 05:20:08;;;;;;;80.65;30.42;;;;;;;;;;5080281;28;20123;-60
2022/01/19 05:22:34;;;;;;;87.43;30.65;;;;;;;;;;5089839;28;20119;-61
2022/01/19 05:25:01;;;;;;;80.22;31.05;;;;;;;;;;5101542;28;20499;-60
2022/01/19 05:27:27;;;;;;;90.60;29.73;;;;;;;;;;5107345;28;20043;-60
2022/01/19 05:29:53;;;;;;;81.95;32.60;;;;;;;;;;5131316;27;20554;-60
2022/01/19 05:32:19;;;;;;;81.93;29.80;;;;;;;;;;5148451;27;20047;-60
2022/01/19 05:34:45;;;;;;;74.10;29.65;;;;;;;;;;5148991;27;20435;-60
2022/01/19 05:37:12;;;;;;;74.10;29.58;;;;;;;;;;5148099;27;20039;-58
2022/01/19 05:39:38;;;;;;;72.35;31.60;;;;;;;;;;5148448;27;20125;-61
2022/01/19 05:42:04;;;;;;;83.07;31.65;;;;;;;;;;5148136;27;20046;-59
2022/01/19 05:44:30;;;;;;;81.90;31.38;;;;;;;;;;5148732;27;20098;-61
2022/01/19 05:46:56;;;;;;;67.28;29.30;;;;;;;;;;5148300;27;20068;-59
2022/01/19 05:49:22;;;;;;;70.43;30.48;;;;;;;;;;5148177;27;20059;-59
2022/01/19 05:51:48;;;;;;;72.40;29.98;;;;;;;;;;5147654;27;20075;-59
2022/01/19 05:54:17;;;;;;;69.30;30.30;;;;;;;;;;5148459;27;20043;-59
2022/01/19 05:56:44;;;;;;;67.90;28.55;;;;;;;;;;5148415;27;20050;-59
2022/01/19 05:59:10;;;;;;;70.38;28.80;;;;;;;;;;5147993;27;20039;-59
2022/01/19 06:01:36;;;;;;;73.97;30.58;;;;;;;;;;5148066;27;20044;-60
2022/01/19 06:04:02;;;;;;;81.30;30.00;;;;;;;;;;5148126;27;20103;-58
2022/01/19 06:06:31;;;;;;;68.63;28.15;;;;;;;;;;5147478;27;20050;-58
2022/01/19 06:09:08;;;;;;;70.75;31.40;;;;;;;;;;5147802;27;20050;-58
2022/01/19 06:11:34;;;;;;;66.72;27.73;;;;;;;;;;5148185;27;20063;-61
2022/01/19 06:14:00;;;;;;;62.83;28.23;;;;;;;;;;5148027;27;20042;-58
2022/01/19 06:16:26;;;;;;;63.30;28.42;;;;;;;;;;5147635;27;20140;-59
2022/01/19 06:18:52;;;;;;;83.63;31.15;;;;;;;;;;5147544;27;20123;-59
2022/01/19 06:21:18;;;;;;;69.80;28.20;;;;;;;;;;5146855;27;20043;-59
2022/01/19 06:23:45;;;;;;;65.60;29.20;;;;;;;;;;5147830;27;20391;-59
2022/01/19 06:26:11;;;;;;;75.95;30.25;;;;;;;;;;5148019;27;20050;-59
2022/01/19 06:28:37;;;;;;;77.68;30.13;;;;;;;;;;5147007;27;20117;-59
2022/01/19 06:31:03;;;;;;;77.90;29.95;;;;;;;;;;5147476;27;20102;-59
2022/01/19 06:33:29;;;;;;;69.85;30.92;;;;;;;;;;5147699;27;20514;-59
2022/01/19 06:35:55;;;;;;;78.57;32.10;;;;;;;;;;5146896;27;20220;-59
2022/01/19 06:38:22;;;;;;;64.68;26.85;;;;;;;;;;5144483;27;20046;-59
2022/01/19 06:40:48;;;;;;;71.82;31.30;;;;;;;;;;5147593;27;20046;-59
2022/01/19 06:43:14;;;;;;;67.78;29.40;;;;;;;;;;5147200;27;20106;-58
2022/01/19 06:45:40;;;;;;;72.28;30.85;;;;;;;;;;5146544;27;20130;-58
2022/01/19 06:48:06;;;;;;;75.43;31.48;;;;;;;;;;5145668;27;20082;-58
2022/01/19 06:50:33;;;;;;;66.22;28.85;;;;;;;;;;5146238;27;20047;-58
2022/01/19 06:52:59;;;;;;;62.08;29.42;;;;;;;;;;5146861;27;20054;-58
2022/01/19 06:55:25;;;;;;;61.70;28.55;;;;;;;;;;5146609;27;20082;-58
2022/01/19 06:57:52;;;;;;;67.22;29.77;;;;;;;;;;5145548;27;20407;-58
2022/01/19 07:00:18;;;;;;;74.28;30.42;;;;;;;;;;5145689;27;20043;-59
2022/01/19 07:02:44;;;;;;;70.18;29.65;;;;;;;;;;5146959;27;20057;-58
2022/01/19 07:05:10;;;;;;;74.82;32.10;;;;;;;;;;5145153;27;20035;-61
2022/01/19 07:07:37;;;;;;;70.95;29.65;;;;;;;;;;5146445;27;20088;-59
2022/01/19 07:10:04;;;;;;;67.10;30.88;;;;;;;;;;5145517;27;20098;-59
2022/01/19 07:12:31;;;;;;;68.65;30.92;;;;;;;;;;5145812;27;20043;-59
2022/01/19 07:14:57;;;;;;;68.25;30.05;;;;;;;;;;5146768;27;20054;-58
2022/01/19 07:17:23;;;;;;;71.45;30.58;;;;;;;;;;5147565;27;20118;-59
2022/01/19 07:19:49;;;;;;;65.07;31.52;;;;;;;;;;5146182;27;20085;-61
2022/01/19 07:22:16;;;;;;;70.85;30.65;;;;;;;;;;5144660;27;20128;-59
2022/01/19 07:24:42;;;;;;;69.25;28.42;;;;;;;;;;5146633;27;20121;-59
2022/01/19 07:27:08;;;;;;;63.47;28.35;;;;;;;;;;5144777;27;20031;-59
2022/01/19 07:29:35;;;;;;;56.83;25.95;;;;;;;;;;5145251;27;20179;-59
2022/01/19 07:32:01;;;;;;;76.82;33.20;;;;;;;;;;5145860;27;20039;-58
2022/01/19 07:34:29;;;;;;;66.78;28.85;;;;;;;;;;5144326;27;20039;-59
2022/01/19 07:36:55;;;;;;;70.43;30.27;;;;;;;;;;5144897;27;20518;-59
2022/01/19 07:39:22;;;;;;;62.72;29.48;;;;;;;;;;5146543;27;20046;-59
2022/01/19 07:41:48;;;;;;;73.13;32.17;;;;;;;;;;5150020;27;20051;-59
2022/01/19 07:44:14;;;;;;;69.63;32.42;;;;;;;;;;5152606;27;20153;-58
2022/01/19 07:46:41;;;;;;;69.05;29.88;;;;;;;;;;5166978;27;20050;-58
2022/01/19 07:49:07;;;;;;;61.33;29.58;;;;;;;;;;5158755;27;20055;-58
2022/01/19 07:51:33;;;;;;;70.45;29.88;;;;;;;;;;5145961;27;20063;-58
2022/01/19 07:53:59;;;;;;;67.90;29.90;;;;;;;;;;5147685;27;20039;-59
2022/01/19 07:56:25;;;;;;;65.00;29.80;;;;;;;;;;5140583;27;20035;-61
2022/01/19 07:58:52;;;;;;;67.47;29.52;;;;;;;;;;5145992;27;20077;-60
2022/01/19 08:01:19;;;;;;;70.43;32.25;;;;;;;;;;5144898;27;20103;-59
2022/01/19 08:03:45;;;;;;;66.38;29.77;;;;;;;;;;5144301;27;20043;-58
2022/01/19 08:06:11;;;;;;;59.90;27.73;;;;;;;;;;5145623;27;20039;-58
2022/01/19 08:08:37;;;;;;;64.43;30.45;;;;;;;;;;5158264;27;20071;-58
2022/01/19 08:11:03;;;;;;;65.57;29.85;;;;;;;;;;5146151;27;20043;-60
2022/01/19 08:13:30;;;;;;;66.97;30.42;;;;;;;;;;5146005;27;20043;-60
2022/01/19 08:15:56;;;;;;;66.38;29.48;;;;;;;;;;5144966;27;20042;-60
2022/01/19 08:18:22;;;;;;;62.10;29.25;;;;;;;;;;5146795;27;20099;-59
2022/01/19 08:20:48;;;;;;;67.55;29.30;;;;;;;;;;5145592;27;20379;-62
2022/01/19 08:23:14;;;;;;;64.45;29.52;;;;;;;;;;5146210;27;20051;-60
2022/01/19 08:25:40;;;;;;;64.68;30.63;;;;;;;;;;5163474;27;20050;-59
2022/01/19 08:28:06;;;;;;;65.70;29.85;;;;;;;;;;5146867;27;20047;-60
2022/01/19 08:30:33;;;;;;;71.38;32.10;;;;;;;;;;5146353;27;20039;-60
2022/01/19 08:32:59;;;;;;;61.38;29.00;;;;;;;;;;5146898;27;20039;-60
2022/01/19 08:35:25;;;;;;;67.82;29.77;;;;;;;;;;5145399;27;20070;-60
2022/01/19 08:37:51;;;;;;;66.20;33.17;;;;;;;;;;5149455;27;20042;-60
2022/01/19 08:40:21;;;;;;;66.65;33.45;;;;;;;;;;5159536;27;20062;-60
2022/01/19 08:42:47;;;;;;;72.35;32.70;;;;;;;;;;5155471;27;20654;-60
2022/01/19 08:45:13;;;;;;;70.50;33.13;;;;;;;;;;5147948;27;20112;-60
2022/01/19 08:47:40;;;;;;;72.43;33.95;;;;;;;;;;5140325;28;20039;-60
2022/01/19 08:50:08;;;;;;;65.32;32.60;;;;;;;;;;5144797;27;20062;-60
2022/01/19 08:52:34;;;;;;;;;;;;;;;;;;5144869;28;20046;-58
2022/01/19 08:55:00;;;;;;;55.38;27.77;;;;;;;;;;5139520;27;19976;-60
2022/01/19 08:57:26;;;;;;;73.03;32.40;;;;;;;;;;5141525;27;20074;-60
2022/01/19 08:59:52;;;;;;;63.58;30.23;;;;;;;;;;5140328;27;20500;-60
2022/01/19 09:02:19;;;;;;;68.97;31.42;;;;;;;;;;5143031;27;20078;-60
2022/01/19 09:04:45;;;;;;;64.65;31.00;;;;;;;;;;5148789;27;20043;-60
2022/01/19 09:07:12;;;;;;;64.32;31.83;;;;;;;;;;5148723;27;20074;-61
2022/01/19 09:09:38;;;;;;;59.97;31.13;;;;;;;;;;5148592;27;20054;-60
2022/01/19 09:12:04;;;;;;;70.38;32.95;;;;;;;;;;5148381;27;20134;-61
2022/01/19 09:14:31;;;;;;;65.00;32.53;;;;;;;;;;5146988;27;20047;-60
2022/01/19 09:16:58;;;;;;;71.20;31.58;;;;;;;;;;5147650;27;20112;-60
2022/01/19 09:19:24;;;;;;;67.40;32.78;;;;;;;;;;5148623;27;20073;-60
2022/01/19 09:21:51;;;;;;;56.50;30.38;;;;;;;;;;5147381;27;20077;-60
2022/01/19 09:24:17;;;;;;;59.75;29.92;;;;;;;;;;5129872;27;20054;-60
2022/01/19 09:26:44;;;;;;;64.85;31.58;;;;;;;;;;5146512;27;20054;-60
2022/01/19 09:29:10;;;;;;;64.05;31.08;;;;;;;;;;5148718;27;20122;-60
2022/01/19 09:31:38;;;;;;;66.53;32.50;;;;;;;;;;5147050;27;20074;-60
2022/01/19 09:34:08;;;;;;;58.65;29.77;;;;;;;;;;5148542;27;20047;-60
2022/01/19 09:36:44;;;;;;;73.10;33.97;;;;;;;;;;5147517;27;20051;-61
2022/01/19 09:39:10;;;;;;;65.60;31.15;;;;;;;;;;5148979;27;20042;-60
2022/01/19 09:41:36;;;;;;;64.65;31.83;;;;;;;;;;5148138;27;20039;-60
2022/01/19 09:44:02;;;;;;;62.70;30.65;;;;;;;;;;5147730;27;20046;-61
2022/01/19 09:46:29;;;;;;;66.85;32.35;;;;;;;;;;5148268;27;20088;-60
2022/01/19 09:48:56;;;;;;;65.07;32.15;;;;;;;;;;5146957;27;20043;-58
2022/01/19 09:51:23;;;;;;;70.25;29.83;;;;;;;;;;5147562;27;20059;-58
2022/01/19 09:53:49;;;;;;;70.28;31.52;;;;;;;;;;5147715;27;20035;-62
2022/01/19 09:56:17;;;;;;;64.15;31.35;;;;;;;;;;5148485;27;20042;-58
2022/01/19 09:58:43;;;;;;;63.08;30.73;;;;;;;;;;5147480;27;20035;-58
2022/01/19 10:01:09;;;;;;;60.40;31.75;;;;;;;;;;5147799;27;20072;-61
2022/01/19 10:03:35;;;;;;;63.22;30.00;;;;;;;;;;5147311;27;20099;-59
2022/01/19 10:06:07;;;;;;;72.10;34.33;;;;;;;;;;5147770;27;20078;-61
2022/01/19 10:08:35;;;;;;;71.15;33.75;;;;;;;;;;5148240;27;20050;-59
2022/01/19 10:11:13;;;;;;;71.28;35.90;;;;;;;;;;5148356;27;20043;-59
2022/01/19 10:19:36;;;;;;;68.40;32.78;;;;;;;;;;5147205;27;20039;-59
2022/01/19 10:22:14;;;;;;;60.85;31.48;;;;;;;;;;5144107;27;20035;-59
2022/01/19 10:24:41;;;;;;;74.00;33.97;;;;;;;;;;5147180;27;20139;-59
2022/01/19 10:27:22;;;;;;;71.40;36.35;;;;;;;;;;5147152;27;20043;-60
2022/01/19 10:30:04;;;;;;;75.63;36.25;;;;;;;;;;5145943;27;20114;-59
2022/01/19 10:32:37;;;;;;;73.38;34.08;;;;;;;;;;5147680;27;20050;-59
2022/01/19 10:35:21;;;;;;;68.90;34.38;;;;;;;;;;5147271;27;20113;-59
2022/01/19 10:37:49;;;;;;;72.53;35.35;;;;;;;;;;5147139;27;20043;-59
2022/01/19 10:40:22;;;;;;;77.00;36.22;;;;;;;;;;5147652;27;20039;-59
2022/01/19 10:42:48;;;;;;;73.82;35.67;;;;;;;;;;5146184;27;20057;-59
2022/01/19 10:45:15;;;;;;;67.60;33.97;;;;;;;;;;5147198;27;20100;-59
2022/01/19 10:47:49;;;;;;;75.27;35.23;;;;;;;;;;5146691;27;20042;-59
2022/01/19 10:50:15;;;;;;;69.90;36.70;;;;;;;;;;5146200;27;20049;-59
2022/01/19 10:52:45;;;;;;;71.65;35.10;;;;;;;;;;5146671;27;20085;-59
2022/01/19 10:55:32;;;;;;;69.60;34.55;;;;;;;;;;5145854;27;20051;-60
2022/01/19 10:57:59;;;;;;;76.82;37.53;;;;;;;;;;5140008;27;20054;-59
2022/01/19 11:00:29;;;;;;;66.88;32.55;;;;;;;;;;5139330;27;20142;-59
2022/01/19 11:03:13;;;;;;;64.15;33.22;;;;;;;;;;5145227;27;20095;-59
2022/01/19 11:05:41;;;;;;;74.07;35.95;;;;;;;;;;5145561;27;20043;-59
2022/01/19 11:08:08;;;;;;;78.43;37.63;;;;;;;;;;5145934;27;20507;-59
2022/01/19 11:10:34;;;;;;;75.93;36.85;;;;;;;;;;5141217;27;20079;-59
2022/01/19 11:13:00;;;;;;;76.25;34.75;;;;;;;;;;5138069;27;20046;-59
2022/01/19 11:15:27;;;;;;;64.53;35.13;;;;;;;;;;5145533;27;20372;-59
2022/01/19 11:17:53;;;;;;;72.18;36.17;;;;;;;;;;5145740;27;20106;-59
2022/01/19 11:20:20;;;;;;;70.85;35.85;;;;;;;;;;5145099;27;20066;-59
2022/01/19 11:23:06;;;;;;;74.18;36.83;;;;;;;;;;5145341;27;20043;-59
2022/01/19 11:25:47;;;;;;;70.72;34.58;;;;;;;;;;5145428;27;20502;-59
2022/01/19 11:28:33;;;;;;;57.53;31.05;;;;;;;;;;5137855;27;20078;-59
2022/01/19 11:31:00;;;;;;;61.50;32.03;;;;;;;;;;5145822;27;20067;-59
2022/01/19 11:33:28;;;;;;;73.50;37.40;;;;;;;;;;5145979;27;20094;-59
2022/01/19 11:35:58;;;;;;;67.57;37.22;;;;;;;;;;5149730;27;20073;-59
2022/01/19 11:38:36;;;;;;;71.07;37.35;;;;;;;;;;5145736;27;20235;-60
2022/01/19 11:41:09;;;;;;;74.70;35.78;;;;;;;;;;5145279;27;20042;-59
2022/01/19 11:43:36;;;;;;;63.53;35.80;;;;;;;;;;5145357;27;20447;-59
2022/01/19 11:46:03;;;;;;;71.75;37.03;;;;;;;;;;5145463;27;20051;-59
2022/01/19 11:48:35;;;;;;;70.28;35.03;;;;;;;;;;5146017;27;20080;-59
2022/01/19 11:51:20;;;;;;;64.60;33.17;;;;;;;;;;5145213;27;20485;-60
2022/01/19 11:54:04;;;;;;;63.35;34.50;;;;;;;;;;5145768;27;20090;-60
2022/01/19 11:56:31;;;;;;;65.53;34.72;;;;;;;;;;5145382;27;20135;-59
2022/01/19 11:59:10;;;;;;;59.78;34.60;;;;;;;;;;5145232;27;20126;-59
2022/01/19 12:01:37;;;;;;;62.45;33.83;;;;;;;;;;5145437;27;20046;-60
2022/01/19 12:04:20;;;;;;;64.72;34.78;;;;;;;;;;5145607;27;20059;-60
2022/01/19 12:06:47;;;;;;;68.55;36.10;;;;;;;;;;5144717;27;20043;-59
2022/01/19 12:09:14;;;;;;;52.60;31.70;;;;;;;;;;5145921;27;20043;-60
2022/01/19 12:11:54;;;;;;;61.05;32.58;;;;;;;;;;5151944;27;20042;-59
2022/01/19 12:14:34;;;;;;;63.88;33.90;;;;;;;;;;5148047;27;20039;-60
2022/01/19 12:17:09;;;;;;;68.30;36.97;;;;;;;;;;5135181;27;20046;-59
2022/01/19 12:19:42;;;;;;;68.22;34.08;;;;;;;;;;5127660;28;20063;-60
2022/01/19 12:22:20;;;;;;;67.70;33.05;;;;;;;;;;5142023;27;20054;-60
2022/01/19 12:24:56;;;;;;;68.07;33.33;;;;;;;;;;5145379;27;20069;-59
2022/01/19 12:27:27;;;;;;;63.08;33.75;;;;;;;;;;5142361;27;20035;-60
2022/01/19 12:29:53;;;;;;;62.65;33.85;;;;;;;;;;5145587;28;20043;-59
2022/01/19 12:32:23;;;;;;;67.32;35.88;;;;;;;;;;5145210;28;20047;-60
2022/01/19 12:34:51;;;;;;;67.05;35.90;;;;;;;;;;5146598;27;20086;-60
2022/01/19 12:37:33;;;;;;;78.28;38.05;;;;;;;;;;5149322;27;20035;-59
2022/01/19 12:40:00;;;;;;;58.53;29.23;;;;;;;;;;5148997;27;20058;-59
2022/01/19 12:42:40;;;;;;;68.72;34.35;;;;;;;;;;5149134;27;20043;-59
2022/01/19 12:45:17;;;;;;;64.10;32.75;;;;;;;;;;5147596;27;20074;-60
2022/01/19 12:47:45;;;;;;;73.65;33.00;;;;;;;;;;5129159;28;20044;-60
2022/01/19 12:50:11;;;;;;;77.63;36.15;;;;;;;;;;5128068;28;20055;-59
2022/01/19 12:52:41;;;;;;;66.47;35.90;;;;;;;;;;5128784;28;20043;-59
2022/01/19 12:55:21;;;;;;;69.55;35.50;;;;;;;;;;5133013;27;20091;-60
2022/01/19 12:57:48;;;;;;;62.22;31.75;;;;;;;;;;5142901;27;20047;-59
2022/01/19 13:00:16;;;;;;;62.43;32.27;;;;;;;;;;5142051;27;20472;-59
2022/01/19 13:02:42;;;;;;;64.82;32.53;;;;;;;;;;5148210;27;20447;-59
2022/01/19 13:05:10;;;;;;;63.75;32.22;;;;;;;;;;5143488;27;20107;-59
2022/01/19 13:07:58;;;;;;;53.90;30.35;;;;;;;;;;5148415;27;20042;-59
2022/01/19 13:10:43;;;;;;;58.80;33.78;;;;;;;;;;5148510;27;20054;-60
2022/01/19 13:13:24;;;;;;;62.28;32.83;;;;;;;;;;5132201;27;20069;-59
2022/01/19 13:15:55;;;;;;;59.40;30.05;;;;;;;;;;5136309;27;20047;-59
2022/01/19 13:18:32;;;;;;;69.20;31.90;;;;;;;;;;5137649;27;20042;-59
2022/01/19 13:21:03;;;;;;;55.75;28.20;;;;;;;;;;5148317;27;20109;-59
2022/01/19 13:23:29;;;;;;;65.13;34.65;;;;;;;;;;5148455;27;20058;-59
2022/01/19 13:25:57;;;;;;;69.90;32.97;;;;;;;;;;5144489;27;20039;-60
2022/01/19 13:28:27;;;;;;;58.38;30.77;;;;;;;;;;5148562;27;20039;-60
2022/01/19 13:30:57;;;;;;;64.20;32.65;;;;;;;;;;5147621;27;20544;-61
2022/01/19 13:33:24;;;;;;;67.20;32.53;;;;;;;;;;5143313;27;20427;-60
2022/01/19 13:36:00;;;;;;;59.22;30.95;;;;;;;;;;5147856;27;20490;-59
2022/01/19 13:38:27;;;;;;;65.10;29.95;;;;;;;;;;5148623;27;20129;-59
2022/01/19 13:41:01;;;;;;;64.20;32.70;;;;;;;;;;5146992;27;20053;-59
2022/01/19 13:43:27;;;;;;;69.00;33.22;;;;;;;;;;5148190;27;20107;-60
2022/01/19 13:46:01;;;;;;;51.95;27.95;;;;;;;;;;5148700;27;20074;-60
2022/01/19 13:48:28;;;;;;;75.75;34.33;;;;;;;;;;5145591;27;20051;-60
2022/01/19 13:50:59;;;;;;;75.28;35.75;;;;;;;;;;5147840;27;20047;-60
2022/01/19 13:53:27;;;;;;;68.50;31.95;;;;;;;;;;5146074;27;20028;-60
2022/01/19 13:55:54;;;;;;;59.17;28.95;;;;;;;;;;5148236;27;20169;-60
2022/01/19 13:58:20;;;;;;;63.97;31.95;;;;;;;;;;5147057;27;20091;-60
2022/01/19 14:00:49;;;;;;;62.20;29.90;;;;;;;;;;5148148;27;20047;-60
2022/01/19 14:03:15;;;;;;;62.13;28.35;;;;;;;;;;5148117;27;20050;-60
2022/01/19 14:05:47;;;;;;;56.50;26.73;;;;;;;;;;5146806;27;20117;-61
2022/01/19 14:08:14;;;;;;;65.15;28.20;;;;;;;;;;5147677;27;20053;-60
2022/01/19 14:10:58;;;;;;;48.45;24.38;;;;;;;;;;5147651;27;20074;-60
2022/01/19 14:13:35;;;;;;;58.60;26.55;;;;;;;;;;5146611;27;20050;-60
2022/01/19 14:16:19;;;;;;;57.13;25.33;;;;;;;;;;5147063;27;20055;-61
2022/01/19 14:19:05;;;;;;;51.78;23.70;;;;;;;;;;5147914;27;20039;-60
2022/01/19 14:21:31;;;;;;;54.65;24.60;;;;;;;;;;5147281;27;20043;-60
2022/01/19 14:23:58;;;;;;;63.83;26.42;;;;;;;;;;5147515;27;20463;-60
2022/01/19 14:26:24;;;;;;;62.78;24.95;;;;;;;;;;5147531;27;20080;-60
2022/01/19 14:29:09;;;;;;;49.25;22.77;;;;;;;;;;5147330;27;20043;-60
2022/01/19 14:31:46;;;;;;;59.80;25.30;;;;;;;;;;5147128;27;20046;-60
2022/01/19 14:34:12;;;;;;;62.60;24.52;;;;;;;;;;5146448;27;20043;-60
2022/01/19 14:36:38;;;;;;;65.28;24.90;;;;;;;;;;5146954;27;20465;-60
2022/01/19 14:39:05;;;;;;;65.10;26.88;;;;;;;;;;5140513;27;20091;-60
2022/01/19 14:41:36;;;;;;;50.95;21.85;;;;;;;;;;5146817;27;20402;-60
2022/01/19 14:44:09;;;;;;;53.97;23.63;;;;;;;;;;5146066;27;20047;-61
2022/01/19 14:46:55;;;;;;;58.33;25.80;;;;;;;;;;5147377;27;20039;-60
2022/01/19 14:49:28;;;;;;;65.72;24.35;;;;;;;;;;5147267;27;20059;-60
2022/01/19 14:51:55;;;;;;;56.30;21.92;;;;;;;;;;5146289;27;20499;-60
2022/01/19 14:54:23;;;;;;;51.60;23.08;;;;;;;;;;5146698;27;20039;-60
2022/01/19 14:56:49;;;;;;;49.30;20.92;;;;;;;;;;5145932;27;20102;-60
2022/01/19 14:59:16;;;;;;;32.30;17.23;;;;;;;;;;5145241;27;20498;-60
2022/01/19 15:01:53;;;;;;;40.55;19.63;;;;;;;;;;5146732;27;20049;-61
2022/01/19 15:04:20;;;;;;;36.13;19.27;;;;;;;;;;5147076;27;20051;-60
2022/01/19 15:06:47;;;;;;;43.47;18.98;;;;;;;;;;5146364;27;20050;-60
2022/01/19 15:09:14;;;;;;;32.28;15.70;;;;;;;;;;5144567;27;20478;-60
2022/01/19 15:11:40;;;;;;;52.78;19.90;;;;;;;;;;5145947;27;20035;-60
2022/01/19 15:14:07;;;;;;;40.05;16.75;;;;;;;;;;5144127;27;20083;-60
2022/01/19 15:16:33;;;;;;;37.97;16.63;;;;;;;;;;5128946;27;20043;-60
2022/01/19 15:18:59;;;;;;;48.22;19.38;;;;;;;;;;5127479;27;20047;-61
2022/01/19 15:21:26;;;;;;;36.42;16.08;;;;;;;;;;5145692;27;20039;-59
2022/01/19 15:23:53;;;;;;;33.53;14.23;;;;;;;;;;5146351;27;20047;-59
2022/01/19 15:26:19;;;;;;;36.07;15.93;;;;;;;;;;5145750;27;20126;-59
2022/01/19 15:28:49;;;;;;;24.73;12.43;;;;;;;;;;5145655;27;20806;-60
2022/01/19 15:31:15;;;;;;;32.38;15.57;;;;;;;;;;5145595;27;20047;-60
2022/01/19 15:33:42;;;;;;;33.80;14.98;;;;;;;;;;5146908;27;20054;-59
2022/01/19 15:36:08;;;;;;;37.40;15.98;;;;;;;;;;5144451;27;20039;-59
2022/01/19 15:38:35;;;;;;;34.10;14.38;;;;;;;;;;5146016;27;20043;-59
2022/01/19 15:41:02;;;;;;;34.80;14.98;;;;;;;;;;5145946;27;20495;-60
2022/01/19 15:43:28;;;;;;;33.03;11.90;;;;;;;;;;5145367;27;20074;-59
2022/01/19 15:45:54;;;;;;;31.55;14.45;;;;;;;;;;5144275;27;20079;-59
2022/01/19 15:48:21;;;;;;;41.08;14.02;;;;;;;;;;5139300;27;20092;-59
2022/01/19 15:50:53;;;;;;;38.22;14.20;;;;;;;;;;5142911;27;20089;-59
2022/01/19 15:53:20;;;;;;;36.10;12.82;;;;;;;;;;5143284;27;20046;-59
2022/01/19 15:55:48;;;;;;;35.25;11.95;;;;;;;;;;5143177;27;20058;-59